sensor_id;sensor_type;location;lat;lon;timestamp;P1;durP1;ratioP1;P2;durP2;ratioP2
47259;SDS011;32999;52.412;4.890;2022-07-18T00:01:46;10.80;;;6.65;;
47259;SDS011;32999;52.412;4.890;2022-07-18T00:06:48;7.90;;;6.03;;
47259;SDS011;32999;52.412;4.890;2022-07-18T00:11:55;6.75;;;5.38;;
47259;SDS011;32999;52.412;4.890;2022-07-18T00:16:58;8.77;;;6.03;;
47259;SDS011;32999;52.412;4.890;2022-07-18T00:22:00;7.13;;;5.40;;
47259;SDS011;32999;52.412;4.890;2022-07-18T00:27:02;8.38;;;5.35;;
47259;SDS011;32999;52.412;4.890;2022-07-18T00:32:09;8.02;;;5.35;;
47259;SDS011;32999;52.412;4.890;2022-07-18T00:37:11;9.88;;;5.45;;
47259;SDS011;32999;52.412;4.890;2022-07-18T00:42:13;8.13;;;5.75;;
47259;SDS011;32999;52.412;4.890;2022-07-18T00:47:16;8.98;;;5.38;;
47259;SDS011;32999;52.412;4.890;2022-07-18T00:52:18;8.13;;;5.83;;
47259;SDS011;32999;52.412;4.890;2022-07-18T00:57:25;8.77;;;5.70;;
47259;SDS011;32999;52.412;4.890;2022-07-18T01:02:30;9.55;;;5.43;;
47259;SDS011;32999;52.412;4.890;2022-07-18T01:07:31;7.70;;;4.97;;
47259;SDS011;32999;52.412;4.890;2022-07-18T01:12:33;7.10;;;5.20;;
47259;SDS011;32999;52.412;4.890;2022-07-18T01:17:37;9.65;;;5.15;;
47259;SDS011;32999;52.412;4.890;2022-07-18T01:22:40;7.00;;;5.10;;
47259;SDS011;32999;52.412;4.890;2022-07-18T01:27:43;7.38;;;4.65;;
47259;SDS011;32999;52.412;4.890;2022-07-18T01:32:44;7.05;;;4.95;;
47259;SDS011;32999;52.412;4.890;2022-07-18T01:37:50;10.45;;;4.90;;
47259;SDS011;32999;52.412;4.890;2022-07-18T01:42:52;8.82;;;4.53;;
47259;SDS011;32999;52.412;4.890;2022-07-18T01:47:54;9.20;;;4.45;;
47259;SDS011;32999;52.412;4.890;2022-07-18T01:52:59;7.45;;;4.32;;
47259;SDS011;32999;52.412;4.890;2022-07-18T01:58:01;5.30;;;3.97;;
47259;SDS011;32999;52.412;4.890;2022-07-18T02:03:03;5.97;;;4.03;;
47259;SDS011;32999;52.412;4.890;2022-07-18T02:08:07;6.95;;;3.90;;
47259;SDS011;32999;52.412;4.890;2022-07-18T02:13:13;6.25;;;3.78;;
47259;SDS011;32999;52.412;4.890;2022-07-18T02:18:16;8.20;;;3.87;;
47259;SDS011;32999;52.412;4.890;2022-07-18T02:23:20;6.82;;;4.30;;
47259;SDS011;32999;52.412;4.890;2022-07-18T02:28:28;7.97;;;3.90;;
47259;SDS011;32999;52.412;4.890;2022-07-18T02:33:29;7.45;;;4.30;;
47259;SDS011;32999;52.412;4.890;2022-07-18T02:38:32;10.23;;;4.25;;
47259;SDS011;32999;52.412;4.890;2022-07-18T02:43:34;8.33;;;4.37;;
47259;SDS011;32999;52.412;4.890;2022-07-18T02:48:36;7.40;;;4.32;;
47259;SDS011;32999;52.412;4.890;2022-07-18T02:53:40;6.75;;;3.63;;
47259;SDS011;32999;52.412;4.890;2022-07-18T02:58:41;4.77;;;3.63;;
47259;SDS011;32999;52.412;4.890;2022-07-18T03:03:43;9.68;;;3.58;;
47259;SDS011;32999;52.412;4.890;2022-07-18T03:08:47;7.78;;;4.18;;
47259;SDS011;32999;52.412;4.890;2022-07-18T03:13:48;6.75;;;3.70;;
47259;SDS011;32999;52.412;4.890;2022-07-18T03:18:51;6.40;;;3.35;;
47259;SDS011;32999;52.412;4.890;2022-07-18T03:23:54;5.25;;;3.40;;
47259;SDS011;32999;52.412;4.890;2022-07-18T03:28:56;6.07;;;3.60;;
47259;SDS011;32999;52.412;4.890;2022-07-18T03:34:01;7.43;;;3.75;;
47259;SDS011;32999;52.412;4.890;2022-07-18T03:39:05;6.15;;;3.50;;
47259;SDS011;32999;52.412;4.890;2022-07-18T03:49:14;6.88;;;2.78;;
47259;SDS011;32999;52.412;4.890;2022-07-18T03:54:17;4.80;;;2.47;;
47259;SDS011;32999;52.412;4.890;2022-07-18T03:59:26;9.65;;;3.25;;
47259;SDS011;32999;52.412;4.890;2022-07-18T04:04:28;4.63;;;2.97;;
47259;SDS011;32999;52.412;4.890;2022-07-18T04:09:33;11.43;;;2.65;;
47259;SDS011;32999;52.412;4.890;2022-07-18T04:14:37;4.47;;;2.53;;
47259;SDS011;32999;52.412;4.890;2022-07-18T04:19:42;5.93;;;2.83;;
47259;SDS011;32999;52.412;4.890;2022-07-18T04:29:47;7.35;;;2.58;;
47259;SDS011;32999;52.412;4.890;2022-07-18T04:34:52;6.60;;;2.58;;
47259;SDS011;32999;52.412;4.890;2022-07-18T04:40:00;6.53;;;3.05;;
47259;SDS011;32999;52.412;4.890;2022-07-18T04:57:01;6.25;;;3.42;;
47259;SDS011;32999;52.412;4.890;2022-07-18T05:02:03;6.63;;;3.03;;
47259;SDS011;32999;52.412;4.890;2022-07-18T05:07:05;5.43;;;2.67;;
47259;SDS011;32999;52.412;4.890;2022-07-18T05:12:09;4.22;;;2.63;;
47259;SDS011;32999;52.412;4.890;2022-07-18T05:17:10;6.63;;;2.83;;
47259;SDS011;32999;52.412;4.890;2022-07-18T05:22:12;7.28;;;2.40;;
47259;SDS011;32999;52.412;4.890;2022-07-18T05:27:15;4.30;;;2.58;;
47259;SDS011;32999;52.412;4.890;2022-07-18T05:32:16;5.00;;;2.22;;
47259;SDS011;32999;52.412;4.890;2022-07-18T05:37:18;5.45;;;2.40;;
47259;SDS011;32999;52.412;4.890;2022-07-18T05:42:21;5.40;;;2.60;;
47259;SDS011;32999;52.412;4.890;2022-07-18T05:47:23;9.10;;;2.85;;
47259;SDS011;32999;52.412;4.890;2022-07-18T05:52:25;10.90;;;3.10;;
47259;SDS011;32999;52.412;4.890;2022-07-18T05:57:28;9.65;;;2.60;;
47259;SDS011;32999;52.412;4.890;2022-07-18T06:02:30;4.68;;;2.50;;
47259;SDS011;32999;52.412;4.890;2022-07-18T06:07:31;6.32;;;2.70;;
47259;SDS011;32999;52.412;4.890;2022-07-18T06:12:34;7.60;;;2.90;;
47259;SDS011;32999;52.412;4.890;2022-07-18T06:17:36;4.38;;;2.67;;
47259;SDS011;32999;52.412;4.890;2022-07-18T06:22:38;8.88;;;2.30;;
47259;SDS011;32999;52.412;4.890;2022-07-18T06:27:41;5.75;;;1.95;;
47259;SDS011;32999;52.412;4.890;2022-07-18T06:32:43;5.22;;;2.05;;
47259;SDS011;32999;52.412;4.890;2022-07-18T06:37:44;7.97;;;2.58;;
47259;SDS011;32999;52.412;4.890;2022-07-18T06:42:48;6.07;;;2.35;;
47259;SDS011;32999;52.412;4.890;2022-07-18T06:47:49;5.80;;;2.57;;
47259;SDS011;32999;52.412;4.890;2022-07-18T06:52:51;8.07;;;2.25;;
47259;SDS011;32999;52.412;4.890;2022-07-18T06:57:54;5.45;;;2.60;;
47259;SDS011;32999;52.412;4.890;2022-07-18T07:02:56;6.47;;;2.25;;
47259;SDS011;32999;52.412;4.890;2022-07-18T07:07:57;5.43;;;2.22;;
47259;SDS011;32999;52.412;4.890;2022-07-18T07:13:00;8.77;;;2.30;;
47259;SDS011;32999;52.412;4.890;2022-07-18T07:18:05;7.03;;;4.05;;
47259;SDS011;32999;52.412;4.890;2022-07-18T07:23:07;12.32;;;3.72;;
47259;SDS011;32999;52.412;4.890;2022-07-18T07:28:10;4.88;;;1.95;;
47259;SDS011;32999;52.412;4.890;2022-07-18T07:33:12;6.72;;;1.98;;
47259;SDS011;32999;52.412;4.890;2022-07-18T07:38:13;7.95;;;2.70;;
47259;SDS011;32999;52.412;4.890;2022-07-18T07:43:20;6.50;;;2.92;;
47259;SDS011;32999;52.412;4.890;2022-07-18T07:48:23;9.70;;;4.70;;
47259;SDS011;32999;52.412;4.890;2022-07-18T07:53:25;9.23;;;3.58;;
47259;SDS011;32999;52.412;4.890;2022-07-18T07:58:31;6.80;;;2.53;;
47259;SDS011;32999;52.412;4.890;2022-07-18T08:03:32;7.90;;;2.83;;
47259;SDS011;32999;52.412;4.890;2022-07-18T08:08:34;11.48;;;3.15;;
47259;SDS011;32999;52.412;4.890;2022-07-18T08:13:37;7.38;;;2.85;;
47259;SDS011;32999;52.412;4.890;2022-07-18T08:18:39;8.43;;;2.72;;
47259;SDS011;32999;52.412;4.890;2022-07-18T08:23:40;7.82;;;2.45;;
47259;SDS011;32999;52.412;4.890;2022-07-18T08:28:44;5.77;;;2.87;;
47259;SDS011;32999;52.412;4.890;2022-07-18T08:51:33;11.57;;;5.40;;
47259;SDS011;32999;52.412;4.890;2022-07-18T08:56:47;8.27;;;2.65;;
47259;SDS011;32999;52.412;4.890;2022-07-18T09:08:09;7.40;;;2.40;;
47259;SDS011;32999;52.412;4.890;2022-07-18T09:13:12;15.10;;;7.00;;
47259;SDS011;32999;52.412;4.890;2022-07-18T09:18:14;4.68;;;2.22;;
47259;SDS011;32999;52.412;4.890;2022-07-18T09:23:30;6.10;;;2.60;;
47259;SDS011;32999;52.412;4.890;2022-07-18T09:28:46;5.25;;;2.47;;
47259;SDS011;32999;52.412;4.890;2022-07-18T09:33:53;5.75;;;2.55;;
47259;SDS011;32999;52.412;4.890;2022-07-18T09:39:05;6.95;;;2.72;;
47259;SDS011;32999;52.412;4.890;2022-07-18T09:44:21;16.23;;;4.10;;
47259;SDS011;32999;52.412;4.890;2022-07-18T09:49:42;6.15;;;2.40;;
47259;SDS011;32999;52.412;4.890;2022-07-18T09:59:47;12.65;;;3.05;;
47259;SDS011;32999;52.412;4.890;2022-07-18T10:04:50;8.90;;;2.40;;
47259;SDS011;32999;52.412;4.890;2022-07-18T10:14:58;10.70;;;4.78;;
47259;SDS011;32999;52.412;4.890;2022-07-18T10:20:02;5.90;;;2.72;;
47259;SDS011;32999;52.412;4.890;2022-07-18T10:25:05;5.65;;;2.60;;
47259;SDS011;32999;52.412;4.890;2022-07-18T10:30:16;8.68;;;3.65;;
47259;SDS011;32999;52.412;4.890;2022-07-18T10:35:19;3.92;;;2.33;;
47259;SDS011;32999;52.412;4.890;2022-07-18T10:41:06;5.07;;;2.15;;
47259;SDS011;32999;52.412;4.890;2022-07-18T10:46:12;8.00;;;1.90;;
47259;SDS011;32999;52.412;4.890;2022-07-18T10:51:30;2.53;;;1.85;;
47259;SDS011;32999;52.412;4.890;2022-07-18T11:01:54;4.32;;;1.98;;
47259;SDS011;32999;52.412;4.890;2022-07-18T11:07:02;4.13;;;2.00;;
47259;SDS011;32999;52.412;4.890;2022-07-18T11:12:25;2.63;;;1.83;;
47259;SDS011;32999;52.412;4.890;2022-07-18T11:22:56;3.83;;;3.05;;
47259;SDS011;32999;52.412;4.890;2022-07-18T11:27:58;8.45;;;4.80;;
47259;SDS011;32999;52.412;4.890;2022-07-18T11:38:15;6.68;;;2.67;;
47259;SDS011;32999;52.412;4.890;2022-07-18T11:43:21;5.18;;;2.20;;
47259;SDS011;32999;52.412;4.890;2022-07-18T11:48:24;4.32;;;2.63;;
47259;SDS011;32999;52.412;4.890;2022-07-18T12:10:15;5.30;;;2.47;;
47259;SDS011;32999;52.412;4.890;2022-07-18T12:15:20;4.93;;;2.00;;
47259;SDS011;32999;52.412;4.890;2022-07-18T12:20:41;2.95;;;1.58;;
47259;SDS011;32999;52.412;4.890;2022-07-18T12:25:44;2.33;;;1.55;;
47259;SDS011;32999;52.412;4.890;2022-07-18T12:30:46;4.50;;;2.05;;
47259;SDS011;32999;52.412;4.890;2022-07-18T12:35:54;4.07;;;2.15;;
47259;SDS011;32999;52.412;4.890;2022-07-18T12:40:59;3.22;;;2.47;;
47259;SDS011;32999;52.412;4.890;2022-07-18T12:46:05;3.72;;;1.98;;
47259;SDS011;32999;52.412;4.890;2022-07-18T12:51:09;7.80;;;2.45;;
47259;SDS011;32999;52.412;4.890;2022-07-18T12:56:18;9.23;;;2.10;;
47259;SDS011;32999;52.412;4.890;2022-07-18T13:26:23;4.00;;;2.45;;
47259;SDS011;32999;52.412;4.890;2022-07-18T13:36:52;5.85;;;3.97;;
47259;SDS011;32999;52.412;4.890;2022-07-18T13:42:03;4.40;;;2.63;;
47259;SDS011;32999;52.412;4.890;2022-07-18T13:47:05;4.00;;;2.53;;
47259;SDS011;32999;52.412;4.890;2022-07-18T13:52:07;6.03;;;2.20;;
47259;SDS011;32999;52.412;4.890;2022-07-18T13:57:10;3.78;;;2.13;;
47259;SDS011;32999;52.412;4.890;2022-07-18T14:02:13;3.75;;;2.50;;
47259;SDS011;32999;52.412;4.890;2022-07-18T14:07:15;4.60;;;2.13;;
47259;SDS011;32999;52.412;4.890;2022-07-18T14:12:21;4.20;;;2.40;;
47259;SDS011;32999;52.412;4.890;2022-07-18T14:17:23;4.75;;;2.08;;
47259;SDS011;32999;52.412;4.890;2022-07-18T14:27:28;4.43;;;2.50;;
47259;SDS011;32999;52.412;4.890;2022-07-18T14:32:30;6.22;;;2.35;;
47259;SDS011;32999;52.412;4.890;2022-07-18T14:37:32;4.82;;;2.30;;
47259;SDS011;32999;52.412;4.890;2022-07-18T14:42:35;6.97;;;2.47;;
47259;SDS011;32999;52.412;4.890;2022-07-18T14:47:36;5.03;;;2.42;;
47259;SDS011;32999;52.412;4.890;2022-07-18T14:52:39;6.97;;;2.65;;
47259;SDS011;32999;52.412;4.890;2022-07-18T14:57:42;4.05;;;2.20;;
47259;SDS011;32999;52.412;4.890;2022-07-18T15:02:44;4.68;;;2.20;;
47259;SDS011;32999;52.412;4.890;2022-07-18T15:07:46;8.25;;;2.63;;
47259;SDS011;32999;52.412;4.890;2022-07-18T15:12:49;5.50;;;2.22;;
47259;SDS011;32999;52.412;4.890;2022-07-18T15:17:51;7.85;;;2.80;;
47259;SDS011;32999;52.412;4.890;2022-07-18T15:22:52;5.45;;;2.50;;
47259;SDS011;32999;52.412;4.890;2022-07-18T15:27:55;5.22;;;2.05;;
47259;SDS011;32999;52.412;4.890;2022-07-18T15:32:57;4.55;;;1.83;;
47259;SDS011;32999;52.412;4.890;2022-07-18T15:37:59;4.03;;;2.13;;
47259;SDS011;32999;52.412;4.890;2022-07-18T15:43:02;7.55;;;2.70;;
47259;SDS011;32999;52.412;4.890;2022-07-18T15:48:04;5.38;;;2.75;;
47259;SDS011;32999;52.412;4.890;2022-07-18T15:53:09;5.90;;;3.35;;
47259;SDS011;32999;52.412;4.890;2022-07-18T16:03:31;7.68;;;3.55;;
47259;SDS011;32999;52.412;4.890;2022-07-18T16:08:33;5.03;;;2.65;;
47259;SDS011;32999;52.412;4.890;2022-07-18T16:13:36;4.30;;;2.53;;
47259;SDS011;32999;52.412;4.890;2022-07-18T16:18:40;7.53;;;2.67;;
47259;SDS011;32999;52.412;4.890;2022-07-18T16:23:42;3.58;;;2.35;;
47259;SDS011;32999;52.412;4.890;2022-07-18T16:28:45;5.73;;;2.67;;
47259;SDS011;32999;52.412;4.890;2022-07-18T16:33:47;7.82;;;2.95;;
47259;SDS011;32999;52.412;4.890;2022-07-18T16:38:50;3.85;;;2.47;;
47259;SDS011;32999;52.412;4.890;2022-07-18T16:43:56;6.95;;;4.38;;
47259;SDS011;32999;52.412;4.890;2022-07-18T16:48:58;4.82;;;3.08;;
47259;SDS011;32999;52.412;4.890;2022-07-18T16:54:00;5.95;;;2.63;;
47259;SDS011;32999;52.412;4.890;2022-07-18T16:59:11;10.98;;;3.17;;
47259;SDS011;32999;52.412;4.890;2022-07-18T17:04:13;4.95;;;2.38;;
47259;SDS011;32999;52.412;4.890;2022-07-18T17:09:15;4.63;;;2.80;;
47259;SDS011;32999;52.412;4.890;2022-07-18T17:14:18;4.07;;;2.80;;
47259;SDS011;32999;52.412;4.890;2022-07-18T17:19:20;6.28;;;3.08;;
47259;SDS011;32999;52.412;4.890;2022-07-18T17:24:22;3.53;;;2.53;;
47259;SDS011;32999;52.412;4.890;2022-07-18T17:29:26;4.25;;;2.78;;
47259;SDS011;32999;52.412;4.890;2022-07-18T17:34:28;4.82;;;3.40;;
47259;SDS011;32999;52.412;4.890;2022-07-18T17:39:31;4.65;;;3.42;;
47259;SDS011;32999;52.412;4.890;2022-07-18T17:49:37;9.38;;;3.50;;
47259;SDS011;32999;52.412;4.890;2022-07-18T17:54:39;7.45;;;2.90;;
47259;SDS011;32999;52.412;4.890;2022-07-18T17:59:43;4.90;;;3.00;;
47259;SDS011;32999;52.412;4.890;2022-07-18T18:04:44;6.22;;;3.28;;
47259;SDS011;32999;52.412;4.890;2022-07-18T18:09:46;13.90;;;3.13;;
47259;SDS011;32999;52.412;4.890;2022-07-18T18:14:50;5.55;;;3.10;;
47259;SDS011;32999;52.412;4.890;2022-07-18T18:19:51;4.63;;;3.03;;
47259;SDS011;32999;52.412;4.890;2022-07-18T18:24:53;5.35;;;3.15;;
47259;SDS011;32999;52.412;4.890;2022-07-18T18:29:56;4.97;;;2.90;;
47259;SDS011;32999;52.412;4.890;2022-07-18T18:34:58;6.47;;;3.35;;
47259;SDS011;32999;52.412;4.890;2022-07-18T18:39:59;5.85;;;3.42;;
47259;SDS011;32999;52.412;4.890;2022-07-18T18:45:06;7.28;;;3.83;;
47259;SDS011;32999;52.412;4.890;2022-07-18T18:50:09;7.32;;;3.85;;
47259;SDS011;32999;52.412;4.890;2022-07-18T18:55:11;6.35;;;3.78;;
47259;SDS011;32999;52.412;4.890;2022-07-18T19:00:17;6.40;;;4.00;;
47259;SDS011;32999;52.412;4.890;2022-07-18T19:05:21;5.35;;;3.95;;
47259;SDS011;32999;52.412;4.890;2022-07-18T19:15:26;8.90;;;4.00;;
47259;SDS011;32999;52.412;4.890;2022-07-18T19:25:29;6.63;;;3.85;;
47259;SDS011;32999;52.412;4.890;2022-07-18T19:30:32;6.97;;;4.90;;
47259;SDS011;32999;52.412;4.890;2022-07-18T19:35:34;8.93;;;3.38;;
47259;SDS011;32999;52.412;4.890;2022-07-18T19:40:36;7.50;;;4.32;;
47259;SDS011;32999;52.412;4.890;2022-07-18T19:45:39;9.35;;;5.90;;
47259;SDS011;32999;52.412;4.890;2022-07-18T19:50:41;5.13;;;3.83;;
47259;SDS011;32999;52.412;4.890;2022-07-18T19:55:43;14.63;;;7.10;;
47259;SDS011;32999;52.412;4.890;2022-07-18T20:00:46;10.00;;;6.45;;
47259;SDS011;32999;52.412;4.890;2022-07-18T20:05:48;8.50;;;5.03;;
47259;SDS011;32999;52.412;4.890;2022-07-18T20:10:50;6.68;;;3.78;;
47259;SDS011;32999;52.412;4.890;2022-07-18T20:15:53;8.15;;;4.15;;
47259;SDS011;32999;52.412;4.890;2022-07-18T20:25:56;6.90;;;3.85;;
47259;SDS011;32999;52.412;4.890;2022-07-18T20:30:59;8.23;;;4.93;;
47259;SDS011;32999;52.412;4.890;2022-07-18T20:36:01;6.80;;;4.13;;
47259;SDS011;32999;52.412;4.890;2022-07-18T20:41:03;6.80;;;3.90;;
47259;SDS011;32999;52.412;4.890;2022-07-18T20:46:06;11.30;;;5.07;;
47259;SDS011;32999;52.412;4.890;2022-07-18T20:51:08;9.73;;;5.72;;
47259;SDS011;32999;52.412;4.890;2022-07-18T20:56:10;7.90;;;5.65;;
47259;SDS011;32999;52.412;4.890;2022-07-18T21:01:13;6.45;;;4.57;;
47259;SDS011;32999;52.412;4.890;2022-07-18T21:06:15;9.95;;;5.60;;
47259;SDS011;32999;52.412;4.890;2022-07-18T21:11:17;7.95;;;5.10;;
47259;SDS011;32999;52.412;4.890;2022-07-18T21:16:21;8.07;;;4.97;;
47259;SDS011;32999;52.412;4.890;2022-07-18T21:21:22;6.30;;;4.30;;
47259;SDS011;32999;52.412;4.890;2022-07-18T21:26:24;7.85;;;4.93;;
47259;SDS011;32999;52.412;4.890;2022-07-18T21:31:27;6.18;;;4.10;;
47259;SDS011;32999;52.412;4.890;2022-07-18T21:36:29;8.68;;;6.50;;
47259;SDS011;32999;52.412;4.890;2022-07-18T21:41:30;7.30;;;4.07;;
47259;SDS011;32999;52.412;4.890;2022-07-18T21:46:33;6.63;;;4.60;;
47259;SDS011;32999;52.412;4.890;2022-07-18T21:51:35;5.45;;;4.03;;
47259;SDS011;32999;52.412;4.890;2022-07-18T21:56:36;5.40;;;3.53;;
47259;SDS011;32999;52.412;4.890;2022-07-18T22:01:39;7.13;;;3.75;;
47259;SDS011;32999;52.412;4.890;2022-07-18T22:06:41;6.55;;;5.10;;
47259;SDS011;32999;52.412;4.890;2022-07-18T22:11:43;10.07;;;5.80;;
47259;SDS011;32999;52.412;4.890;2022-07-18T22:16:46;9.52;;;5.57;;
47259;SDS011;32999;52.412;4.890;2022-07-18T22:21:48;9.13;;;4.38;;
47259;SDS011;32999;52.412;4.890;2022-07-18T22:26:50;6.45;;;3.88;;
47259;SDS011;32999;52.412;4.890;2022-07-18T22:31:53;5.88;;;3.72;;
47259;SDS011;32999;52.412;4.890;2022-07-18T22:36:54;5.63;;;3.67;;
47259;SDS011;32999;52.412;4.890;2022-07-18T22:41:57;7.45;;;4.07;;
47259;SDS011;32999;52.412;4.890;2022-07-18T22:47:01;7.43;;;3.85;;
47259;SDS011;32999;52.412;4.890;2022-07-18T22:52:03;4.57;;;3.50;;
47259;SDS011;32999;52.412;4.890;2022-07-18T22:57:04;9.57;;;7.07;;
47259;SDS011;32999;52.412;4.890;2022-07-18T23:02:07;9.48;;;5.05;;
47259;SDS011;32999;52.412;4.890;2022-07-18T23:07:09;6.20;;;3.87;;
47259;SDS011;32999;52.412;4.890;2022-07-18T23:12:11;7.30;;;3.67;;
47259;SDS011;32999;52.412;4.890;2022-07-18T23:17:14;7.50;;;3.72;;
47259;SDS011;32999;52.412;4.890;2022-07-18T23:22:15;6.03;;;3.27;;
47259;SDS011;32999;52.412;4.890;2022-07-18T23:27:17;8.82;;;3.95;;
47259;SDS011;32999;52.412;4.890;2022-07-18T23:32:20;6.65;;;3.45;;
47259;SDS011;32999;52.412;4.890;2022-07-18T23:37:22;12.10;;;3.87;;
47259;SDS011;32999;52.412;4.890;2022-07-18T23:42:23;6.60;;;3.40;;
47259;SDS011;32999;52.412;4.890;2022-07-18T23:47:26;8.57;;;3.65;;
47259;SDS011;32999;52.412;4.890;2022-07-18T23:52:28;7.10;;;3.50;;
47259;SDS011;32999;52.412;4.890;2022-07-18T23:57:30;8.30;;;3.72;;
